默认 日期 大小 文件数 浏览量 最新下载 xml
how up磁力链接相关资源由用户搜索指令自动获取,结果来源于网络,本站不存储任何资料,亦不承担任何责任,请于24小时内删除,搜索到614个磁力,用时6ms。
    ... .maria.pie.and.aurelika.how.to.dress.up.aurelika.for.strapon.sex ... .maria.pie.and.aurelika.how.to.dress.up.aurelika.for.strapon.sex ... .maria.pie.and.aurelika.how.to.dress.up.aurelika.for.strapon.sex ...
创建时间: 2018-12-25 03:46:42 大小:2.05 GB 文件数量:4 热度:65 最近下载:2025-07-08 11:34:01
    {"RARBG.com.txt": 34, "bgb.14.09.25.brooke.wylde.how.to.pick.up.a.sleazebag.mp4": 3096527663, "bgb.14.09.25.brooke.wylde.how.to.pick.up.a.sleazebag.nfo": 7002}
创建时间: 2018-12-26 18:21:44 大小:2.88 GB 文件数量:3 热度:53 最近下载:2025-07-31 21:10:04
    {"Please Be kind for read this.txt": 1054, "How To Make Money Shorting Stocks In Up And Down Markets.pdf": 178550}
创建时间: 2018-12-26 22:30:13 大小:175.39 KB 文件数量:2 热度:14 最近下载:2025-09-15 15:03:18
    {"RARBG.txt": 30, "wowp.17.06.24.carolina.abril.how.to.steam.up.the.windows.4k.mp4": 4570053661, "wowp.17.06.24.carolina.abril.how.to.steam.up.the.windows.4k.nfo": 5211}
创建时间: 2018-12-28 18:30:18 大小:4.26 GB 文件数量:3 热度:65 最近下载:2025-06-13 00:28:02
    ... ": 308459, "How To Pick Up Black Chicks.txt": 741, "How To Pick Up Black ... Chicks CD1.avi": 733124608, "How To Pick Up Black ... Chicks CD2.avi": 726753280, "How To Pick Up Black ...
创建时间: 2018-12-28 21:59:11 大小:1.41 GB 文件数量:9 热度:7 最近下载:2025-02-01 23:45:03
    {"dont miss the boat.PNG": 622194, "Just been paid video.wmv": 7235209, "How to Make Money Online.pdf": 5047172}
创建时间: 2018-12-30 01:27:18 大小:12.31 MB 文件数量:3 热度:7 最近下载:2024-10-05 13:55:01
    {"Cover": {"swe6-htpuatb.jpg": 169983, "swe6-htpuatf.jpg": 127589}, "swe6-htpuat.mp4": 1641138549}
创建时间: 2018-12-30 08:37:23 大小:1.53 GB 文件数量:3 热度:5 最近下载:2023-04-20 00:00:10
    {"The I Don't Know How To Cook Book.tgz": 5523072, "Torrent downloaded from demonoid.ph.txt": 46, "Torrent downloaded from AhaShare.com.txt": 58, "Torrent Downloaded From ExtraTorrent.cc.txt": 352}
创建时间: 2018-12-31 00:21:42 大小:5.27 MB 文件数量:4 热度:6 最近下载:2025-10-08 06:37:02
    {"Manteshwer.jpg": 56181, "Torrent downloaded from Demonoid.txt": 46, "Torrent downloaded from AhaShare.com.txt": 59, "Dump 'Em How to Break Up with Anyone from Your Best Friend to Your Hairdresser-Mantesh.pdf": 12990368}
创建时间: 2019-01-01 23:42:45 大小:12.44 MB 文件数量:4 热度:6 最近下载:2023-04-22 09:00:04
    {"RARBG.txt": 30, "WowPorn.17.06.24.Carolina.Abril.How.To.Steam.Up.The.Windows.XXX.SD.MP4-RARBG.mp4": 338695887, "WowPorn.17.06.24.Carolina.Abril.How.To.Steam.Up.The.Windows.XXX.SD.MP4-RARBG.nfo": 3959}
创建时间: 2019-01-02 04:56:51 大小:323.01 MB 文件数量:3 热度:15 最近下载:2025-06-13 00:28:02
    {"RARBG.txt": 29, "poster.jpg": 37600, "screens.jpg": 395425, "wowp.17.06.24.carolina.abril.how.to.steam.up.the.windows.mp4": 1025845257}
创建时间: 2019-01-03 00:02:44 大小:978.74 MB 文件数量:4 热度:18 最近下载:2025-06-13 00:29:01
    {"1.jpg": 903320, "pic.jpg": 293447, "bgb_brooke_wylde_vl073114_480p_1000.mp4": 303629471}
创建时间: 2019-01-04 07:55:43 大小:290.7 MB 文件数量:3 热度:11 最近下载:2024-12-14 17:45:02
    {"Sample": {"stu.13.04.03.eufrat.how.far.up.can.it.go-sample.wmv": 30522902}, "RARBG.com.txt": 34, "stu.13.04.03.eufrat.how.far.up.can.it.go.nfo": 6981, "stu.13.04.03.eufrat.how.far.up.can.it.go.wmv": 969161825}
创建时间: 2019-01-05 15:21:44 大小:953.38 MB 文件数量:4 热度:10 最近下载:2025-01-19 02:56:03
    {"Macworld Australian.tgz": 22805818, "Torrent downloaded from demonoid.pw.txt": 46, "Torrent Downloaded From ExtraTorrent.cc.txt": 352}
创建时间: 2019-01-14 14:50:06 大小:21.75 MB 文件数量:3 热度:4 最近下载:2022-11-12 12:50:46
    {"RARBG.txt": 30, "PornMegaLoad.17.10.20.Dulcinea.How.To.Pick.Up.Big-Boobed.Hotties.XXX.SD.MP4-KLEENEX.mp4": 162037414}
创建时间: 2019-01-14 22:15:54 大小:154.53 MB 文件数量:2 热度:10 最近下载:2024-12-23 13:28:01
    {"tracked_by_h33t_com.txt": 185, "Torrent Downloaded From ExtraTorrent.com.txt": 339, "How to Beat Up Anybody - An Instructional and Inspirational Karate Book.tgz": 19086336}
创建时间: 2019-01-15 06:07:02 大小:18.2 MB 文件数量:3 热度:8 最近下载:2025-09-01 11:36:04
    {"Build Grit How to Grow Guts.tgz": 775687, "Torrent downloaded from demonoid.pw.txt": 46, "Torrent Downloaded From ExtraTorrent.com.txt": 367}
创建时间: 2019-01-15 08:00:46 大小:757.91 KB 文件数量:3 热度:12 最近下载:2025-10-10 19:54:02
    {"poster.jpg": 55500, "screens.jpg": 95717, "RARBG.COM.txt": 33, "swe6.htpuat.mp4": 1641138549}
创建时间: 2019-01-16 03:42:33 大小:1.53 GB 文件数量:4 热度:4 最近下载:2022-11-15 18:50:12
    {"How to speed up BitTorrent by 400%.mp4": 9505296, "How to increase utorrent download speed to maximum.mp4": 6645912}
创建时间: 2019-01-16 12:57:13 大小:15.4 MB 文件数量:2 热度:5 最近下载:2022-11-12 10:53:01
    ... .Got.Me.All.TIed.Up.And.Gagged.Oh.How.Naughty.XXX.HR ... .got.me.all.tied.up.and.gagged.oh.how.naughty.xxx.hr ...
创建时间: 2019-01-16 21:10:10 大小:337.48 MB 文件数量:3 热度:8 最近下载:2024-12-04 23:59:04